createdAt,value
2019-03-09T00:00:11.531Z,18.12
2019-03-09T00:02:41.413Z,19.35
2019-03-09T00:05:11.753Z,21.40
2019-03-09T00:07:39.590Z,19.35
2019-03-09T00:10:16.064Z,18.80
2019-03-09T00:12:45.200Z,18.85
2019-03-09T00:15:14.243Z,23.47
2019-03-09T00:17:42.102Z,19.20
2019-03-09T00:20:11.533Z,19.02
2019-03-09T00:22:42.219Z,18.70
2019-03-09T00:25:17.815Z,20.80
2019-03-09T00:28:13.733Z,21.85
2019-03-09T00:30:59.802Z,19.57
2019-03-09T00:33:27.491Z,26.30
2019-03-09T00:35:55.342Z,19.45
2019-03-09T00:38:23.144Z,27.02
2019-03-09T00:40:50.839Z,25.77
2019-03-09T00:43:18.582Z,27.62
2019-03-09T00:45:48.449Z,28.07
2019-03-09T00:48:16.706Z,35.60
2019-03-09T00:50:44.672Z,26.97
2019-03-09T00:53:12.369Z,27.48
2019-03-09T00:55:43.629Z,25.40
2019-03-09T00:58:12.613Z,25.75
2019-03-09T01:00:43.541Z,35.15
2019-03-09T01:03:12.560Z,32.45
2019-03-09T01:05:40.251Z,26.93
2019-03-09T01:08:08.357Z,32.50
2019-03-09T01:10:36.354Z,34.40
2019-03-09T01:13:04.195Z,37.17
2019-03-09T01:15:36.154Z,37.42
2019-03-09T01:23:43.487Z,26.70
2019-03-09T01:26:11.505Z,28.92
2019-03-09T01:28:39.799Z,24.95
2019-03-09T01:31:07.592Z,30.60
2019-03-09T01:33:36.788Z,22.90
2019-03-09T01:36:04.747Z,25.82
2019-03-09T01:38:32.853Z,21.57
2019-03-09T01:41:01.963Z,20.75
2019-03-09T01:43:29.852Z,20.25
2019-03-09T01:45:57.691Z,18.92
2019-03-09T01:48:25.544Z,20.05
2019-03-09T01:50:53.365Z,19.92
2019-03-09T01:53:21.783Z,27.13
2019-03-09T01:55:49.492Z,19.25
2019-03-09T01:58:17.417Z,17.67
2019-03-09T02:00:45.345Z,18.05
2019-03-09T02:03:14.412Z,14.98
2019-03-09T02:05:45.065Z,15.15
2019-03-09T02:08:13.326Z,19.00
2019-03-09T02:10:41.249Z,17.87
2019-03-09T02:13:09.285Z,18.00
2019-03-09T02:15:36.958Z,14.75
2019-03-09T02:18:04.844Z,15.80
2019-03-09T02:20:32.665Z,16.75
2019-03-09T02:23:00.376Z,17.42
2019-03-09T02:25:28.479Z,16.30
2019-03-09T02:27:56.245Z,19.73
2019-03-09T02:30:24.265Z,13.60
2019-03-09T02:32:52.002Z,14.63
2019-03-09T02:35:19.725Z,16.55
2019-03-09T02:37:49.109Z,20.80
2019-03-09T02:40:19.430Z,15.98
2019-03-09T02:42:47.707Z,15.55
2019-03-09T02:45:15.983Z,16.35
2019-03-09T02:47:44.682Z,19.42
2019-03-09T02:50:13.693Z,17.15
2019-03-09T02:52:42.992Z,15.75
2019-03-09T02:55:13.968Z,14.53
2019-03-09T02:57:43.835Z,13.55
2019-03-09T03:00:15.433Z,13.98
2019-03-09T03:02:55.487Z,15.00
2019-03-09T03:05:23.880Z,17.40
2019-03-09T03:07:51.688Z,16.25
2019-03-09T03:10:19.464Z,21.52
2019-03-09T03:12:48.645Z,20.45
2019-03-09T03:15:32.597Z,15.63
2019-03-09T03:18:00.506Z,17.98
2019-03-09T03:20:31.114Z,22.67
2019-03-09T03:22:58.922Z,19.32
2019-03-09T03:25:27.036Z,19.85
2019-03-09T03:27:55.260Z,18.48
2019-03-09T03:30:23.519Z,17.30
2019-03-09T03:32:53.015Z,20.02
2019-03-09T03:35:21.069Z,14.05
2019-03-09T03:37:49.000Z,15.80
2019-03-09T03:40:16.847Z,17.45
2019-03-09T03:42:48.243Z,15.40
2019-03-09T03:45:16.405Z,17.30
2019-03-09T03:47:44.123Z,16.82
2019-03-09T03:50:12.255Z,25.90
2019-03-09T03:52:40.231Z,18.85
2019-03-09T03:55:08.450Z,18.05
2019-03-09T03:57:36.474Z,20.90
2019-03-09T04:00:05.787Z,29.65
2019-03-09T04:02:33.703Z,23.22
2019-03-09T04:05:01.673Z,26.20
2019-03-09T04:07:29.681Z,28.98
2019-03-09T04:09:57.609Z,26.17
2019-03-09T04:12:25.605Z,20.52
2019-03-09T04:14:53.475Z,23.38
2019-03-09T04:17:21.426Z,22.58
2019-03-09T04:19:49.212Z,23.35
2019-03-09T04:22:17.291Z,20.00
2019-03-09T04:24:47.121Z,18.65
2019-03-09T04:27:14.952Z,20.08
2019-03-09T04:29:44.387Z,25.82
2019-03-09T04:32:12.153Z,19.48
2019-03-09T04:34:39.881Z,17.95
2019-03-09T04:37:08.846Z,16.75
2019-03-09T04:39:36.700Z,23.55
2019-03-09T04:42:04.409Z,18.80
2019-03-09T04:44:32.096Z,19.15
2019-03-09T04:46:59.891Z,23.30
2019-03-09T04:49:28.278Z,18.90
2019-03-09T04:51:56.075Z,18.17
2019-03-09T04:54:27.553Z,20.75
2019-03-09T04:56:55.542Z,21.57
2019-03-09T04:59:23.343Z,19.67
2019-03-09T05:01:53.961Z,14.95
2019-03-09T05:04:44.207Z,20.25
2019-03-09T05:07:15.616Z,15.80
2019-03-09T05:09:54.759Z,18.05
2019-03-09T05:12:22.784Z,15.85
2019-03-09T05:14:50.640Z,23.45
2019-03-09T05:17:18.571Z,23.90
2019-03-09T05:19:47.650Z,17.80
2019-03-09T05:22:15.437Z,15.58
2019-03-09T05:24:43.387Z,17.52
2019-03-09T05:27:11.138Z,18.70
2019-03-09T05:29:39.133Z,18.95
2019-03-09T05:32:06.898Z,22.77
2019-03-09T05:34:34.849Z,23.73
2019-03-09T05:37:02.762Z,23.62
2019-03-09T05:39:30.588Z,18.92
2019-03-09T05:41:59.602Z,17.55
2019-03-09T05:44:27.540Z,21.00
2019-03-09T05:46:55.760Z,34.63
2019-03-09T05:49:23.711Z,23.80
2019-03-09T05:52:28.801Z,28.85
2019-03-09T05:54:57.282Z,29.20
2019-03-09T05:57:25.316Z,22.58
2019-03-09T05:59:53.281Z,23.92
2019-03-09T06:02:20.958Z,23.00
2019-03-09T06:04:49.402Z,20.85
2019-03-09T06:07:17.102Z,23.52
2019-03-09T06:09:45.145Z,26.97
2019-03-09T06:12:12.812Z,22.70
2019-03-09T06:14:40.857Z,23.00
2019-03-09T06:17:08.655Z,25.23
2019-03-09T06:19:36.602Z,21.75
2019-03-09T06:22:04.346Z,21.77
2019-03-09T06:24:32.024Z,25.48
2019-03-09T06:27:00.998Z,24.10
2019-03-09T06:29:28.844Z,23.35
2019-03-09T06:32:33.099Z,29.23
2019-03-09T06:35:01.847Z,20.50
2019-03-09T06:37:29.723Z,23.30
2019-03-09T06:39:57.937Z,25.17
2019-03-09T06:42:29.563Z,24.10
2019-03-09T06:44:57.398Z,21.65
2019-03-09T06:47:25.320Z,27.22
2019-03-09T06:49:53.196Z,32.42
2019-03-09T06:52:20.994Z,32.40
2019-03-09T06:54:49.012Z,33.83
2019-03-09T06:57:17.256Z,30.62
2019-03-09T06:59:45.538Z,20.27
2019-03-09T07:02:13.278Z,20.45
2019-03-09T07:04:41.212Z,18.42
2019-03-09T07:07:08.984Z,17.23
2019-03-09T07:09:36.905Z,23.45
2019-03-09T07:12:04.780Z,19.00
2019-03-09T07:15:19.510Z,18.07
2019-03-09T07:17:49.775Z,18.43
2019-03-09T07:20:18.783Z,17.50
2019-03-09T07:22:46.562Z,14.63
2019-03-09T07:25:14.476Z,14.60
2019-03-09T07:27:43.033Z,12.83
2019-03-09T07:30:16.244Z,13.73
2019-03-09T07:32:44.271Z,14.87
2019-03-09T07:35:12.209Z,16.23
2019-03-09T07:37:41.551Z,13.50
2019-03-09T07:40:09.700Z,19.37
2019-03-09T07:42:37.785Z,14.83
2019-03-09T07:45:08.783Z,13.03
2019-03-09T07:47:36.699Z,14.63
2019-03-09T07:50:05.704Z,26.73
2019-03-09T07:52:35.450Z,17.13
2019-03-09T07:55:03.906Z,13.60
2019-03-09T07:57:33.165Z,12.13
2019-03-09T08:00:00.977Z,8.70
2019-03-09T08:02:28.860Z,10.70
2019-03-09T08:04:56.727Z,7.37
2019-03-09T08:07:24.618Z,7.30
2019-03-09T08:09:52.433Z,8.97
2019-03-09T08:12:24.238Z,7.57
2019-03-09T08:14:52.672Z,9.03
2019-03-09T08:17:20.595Z,8.27
2019-03-09T08:19:48.396Z,7.33
2019-03-09T08:22:16.347Z,6.57
2019-03-09T08:24:44.021Z,7.00
2019-03-09T08:27:12.171Z,8.20
2019-03-09T08:29:40.383Z,11.83
2019-03-09T08:32:08.489Z,6.60
2019-03-09T08:34:38.483Z,8.60
2019-03-09T08:37:06.398Z,8.80
2019-03-09T08:39:34.233Z,8.00
2019-03-09T08:42:02.100Z,9.57
2019-03-09T08:44:32.012Z,16.67
2019-03-09T08:47:00.050Z,7.57
2019-03-09T08:49:28.144Z,9.30
2019-03-09T08:51:56.099Z,8.83
2019-03-09T08:54:24.274Z,9.07
2019-03-09T08:56:52.911Z,6.37
2019-03-09T08:59:20.863Z,6.03
2019-03-09T09:01:49.070Z,7.00
2019-03-09T09:04:16.950Z,5.23
2019-03-09T09:06:44.877Z,7.80
2019-03-09T09:09:12.796Z,5.20
2019-03-09T09:11:40.587Z,10.43
2019-03-09T09:14:08.412Z,5.53
2019-03-09T09:16:36.332Z,6.00
2019-03-09T09:19:04.413Z,10.37
2019-03-09T09:21:32.095Z,11.27
2019-03-09T09:23:59.907Z,6.83
2019-03-09T09:26:27.985Z,9.30
2019-03-09T09:28:56.527Z,7.23
2019-03-09T09:31:24.302Z,6.90
2019-03-09T09:33:52.242Z,6.33
2019-03-09T09:36:20.036Z,5.47
2019-03-09T09:38:47.998Z,7.63
2019-03-09T09:41:15.768Z,14.80
2019-03-09T09:43:44.117Z,5.70
2019-03-09T09:46:12.021Z,6.80
2019-03-09T09:48:40.234Z,6.93
2019-03-09T09:51:08.883Z,4.97
2019-03-09T09:53:37.595Z,8.23
2019-03-09T09:56:05.443Z,7.60
2019-03-09T09:58:33.340Z,8.63
2019-03-09T10:01:01.240Z,4.97
2019-03-09T10:03:29.069Z,6.37
2019-03-09T10:05:57.042Z,5.40
2019-03-09T10:08:26.367Z,9.67
2019-03-09T10:10:54.067Z,4.53
2019-03-09T10:13:21.757Z,8.67
2019-03-09T10:15:50.892Z,9.70
2019-03-09T10:18:23.342Z,5.30
2019-03-09T10:20:51.446Z,7.10
2019-03-09T10:23:19.558Z,8.93
2019-03-09T10:25:47.448Z,8.80
2019-03-09T10:28:15.535Z,5.63
2019-03-09T10:30:44.029Z,5.53
2019-03-09T10:33:12.097Z,4.40
2019-03-09T10:35:39.939Z,6.83
2019-03-09T10:38:07.804Z,11.33
2019-03-09T10:40:35.693Z,5.73
2019-03-09T10:43:03.586Z,5.93
2019-03-09T10:45:31.432Z,7.97
2019-03-09T10:48:00.432Z,7.90
2019-03-09T10:50:28.486Z,5.03
2019-03-09T10:52:56.566Z,6.13
2019-03-09T10:55:27.525Z,5.90
2019-03-09T10:57:55.700Z,7.70
2019-03-09T11:00:26.252Z,5.83
2019-03-09T11:02:54.342Z,7.30
2019-03-09T11:05:22.202Z,8.17
2019-03-09T11:07:50.186Z,8.40
2019-03-09T11:10:18.223Z,4.37
2019-03-09T11:12:47.347Z,4.80
2019-03-09T11:15:15.339Z,5.53
2019-03-09T11:17:43.016Z,14.57
2019-03-09T11:20:11.888Z,6.43
2019-03-09T11:22:39.620Z,5.20
2019-03-09T11:25:07.948Z,6.17
2019-03-09T11:27:37.308Z,5.47
2019-03-09T11:30:08.924Z,4.30
2019-03-09T11:32:38.070Z,5.00
2019-03-09T11:35:06.168Z,6.70
2019-03-09T11:37:33.911Z,4.50
2019-03-09T11:40:01.708Z,9.73
2019-03-09T11:42:29.519Z,7.63
2019-03-09T11:44:57.455Z,5.33
2019-03-09T11:47:26.481Z,4.97
2019-03-09T11:49:54.400Z,7.90
2019-03-09T11:52:22.224Z,10.67
2019-03-09T11:54:50.150Z,7.57
2019-03-09T11:57:17.936Z,5.53
2019-03-09T11:59:45.838Z,15.57
2019-03-09T12:02:13.647Z,5.20
2019-03-09T12:04:46.720Z,6.13
2019-03-09T12:09:37.403Z,8.87
2019-03-09T12:12:07.546Z,6.43
2019-03-09T12:14:36.020Z,6.20
2019-03-09T12:17:12.470Z,8.13
2019-03-09T12:19:35.778Z,5.97
2019-03-09T12:22:04.802Z,6.87
2019-03-09T12:24:32.733Z,5.17
2019-03-09T12:27:00.522Z,6.33
2019-03-09T12:29:28.287Z,5.47
2019-03-09T12:31:56.293Z,5.30
2019-03-09T12:34:24.609Z,6.03
2019-03-09T12:36:52.817Z,10.17
2019-03-09T12:39:20.556Z,7.63
2019-03-09T12:41:48.620Z,8.13
2019-03-09T12:44:16.470Z,6.33
2019-03-09T12:46:44.379Z,5.00
2019-03-09T12:49:12.531Z,10.20
2019-03-09T12:51:40.493Z,4.87
2019-03-09T12:54:08.407Z,7.20
2019-03-09T12:56:37.475Z,9.30
2019-03-09T12:59:05.284Z,5.43
2019-03-09T13:01:35.863Z,5.43
2019-03-09T13:04:10.116Z,5.90
2019-03-09T13:06:38.294Z,5.03
2019-03-09T13:09:06.423Z,6.87
2019-03-09T13:11:36.034Z,5.50
2019-03-09T13:14:04.149Z,6.00
2019-03-09T13:16:32.380Z,7.40
2019-03-09T13:19:00.083Z,5.10
2019-03-09T13:21:27.921Z,6.30
2019-03-09T13:23:55.846Z,5.23
2019-03-09T13:26:23.652Z,7.47
2019-03-09T13:28:51.604Z,7.77
2019-03-09T13:31:19.330Z,8.20
2019-03-09T13:33:47.233Z,5.10
2019-03-09T13:36:15.183Z,5.10
2019-03-09T13:38:43.576Z,5.27
2019-03-09T13:41:11.366Z,5.23
2019-03-09T13:43:39.188Z,5.90
2019-03-09T13:46:07.015Z,6.80
2019-03-09T13:48:34.921Z,6.63
2019-03-09T13:51:02.651Z,5.67
2019-03-09T13:53:30.681Z,10.90
2019-03-09T13:56:00.486Z,7.93
2019-03-09T13:58:29.218Z,42.27
2019-03-09T14:00:58.295Z,48.90
2019-03-09T14:03:27.026Z,13.53
2019-03-09T14:05:58.797Z,19.67
2019-03-09T14:08:26.515Z,12.60
2019-03-09T14:10:59.801Z,10.50
2019-03-09T14:13:27.982Z,7.27
2019-03-09T14:15:55.739Z,4.37
2019-03-09T14:18:23.915Z,6.90
2019-03-09T14:20:51.896Z,13.20
2019-03-09T14:23:19.774Z,39.33
2019-03-09T14:25:47.664Z,15.10
2019-03-09T14:28:15.511Z,14.53
2019-03-09T14:30:44.620Z,9.20
2019-03-09T14:33:12.495Z,4.80
2019-03-09T14:35:43.107Z,5.60
2019-03-09T14:38:13.276Z,11.07
2019-03-09T14:40:42.528Z,6.30
2019-03-09T14:43:11.338Z,8.63
2019-03-09T14:45:41.235Z,8.03
2019-03-09T14:48:09.027Z,7.00
2019-03-09T14:50:36.745Z,10.50
2019-03-09T14:53:04.771Z,6.23
2019-03-09T14:55:32.714Z,14.30
2019-03-09T14:58:00.639Z,35.37
2019-03-09T15:00:30.567Z,12.30
2019-03-09T15:03:00.030Z,6.40
2019-03-09T15:05:27.727Z,7.53
2019-03-09T15:07:58.981Z,5.67
2019-03-09T15:10:28.105Z,6.87
2019-03-09T15:12:55.789Z,6.50
2019-03-09T15:15:28.354Z,6.00
2019-03-09T15:17:56.525Z,6.53
2019-03-09T15:20:31.553Z,8.67
2019-03-09T15:22:59.334Z,6.80
2019-03-09T15:25:28.395Z,6.93
2019-03-09T15:27:56.171Z,7.13
2019-03-09T15:30:27.509Z,7.40
2019-03-09T15:32:55.580Z,7.37
2019-03-09T15:35:26.823Z,4.60
2019-03-09T15:37:54.727Z,6.67
2019-03-09T15:40:28.597Z,10.13
2019-03-09T15:42:56.607Z,11.35
2019-03-09T15:45:24.539Z,8.15
2019-03-09T15:47:52.666Z,8.83
2019-03-09T15:50:21.704Z,5.22
2019-03-09T15:52:49.583Z,5.12
2019-03-09T15:55:19.902Z,7.65
2019-03-09T15:57:47.794Z,5.65
2019-03-09T16:00:17.284Z,8.57
2019-03-09T16:02:45.947Z,6.50
2019-03-09T16:05:14.066Z,9.50
2019-03-09T16:07:42.331Z,7.90
2019-03-09T16:10:11.751Z,9.08
2019-03-09T16:12:39.575Z,8.05
2019-03-09T16:15:08.364Z,6.70
2019-03-09T16:17:36.084Z,5.45
2019-03-09T16:20:04.665Z,5.40
2019-03-09T16:22:32.895Z,8.28
2019-03-09T16:25:00.965Z,8.65
2019-03-09T16:27:28.731Z,12.78
2019-03-09T16:29:56.713Z,8.18
2019-03-09T16:32:24.506Z,7.25
2019-03-09T16:34:53.198Z,6.47
2019-03-09T16:37:21.782Z,6.45
2019-03-09T16:39:49.816Z,6.97
2019-03-09T16:42:17.508Z,7.70
2019-03-09T16:44:45.509Z,8.35
2019-03-09T16:47:13.300Z,6.87
2019-03-09T16:49:41.211Z,9.23
2019-03-09T16:52:08.941Z,10.20
2019-03-09T16:54:36.922Z,12.85
2019-03-09T16:57:04.812Z,7.45
2019-03-09T16:59:32.621Z,14.85
2019-03-09T17:02:00.539Z,6.15
2019-03-09T17:04:28.376Z,11.03
2019-03-09T17:06:56.307Z,11.00
2019-03-09T17:09:24.041Z,14.58
2019-03-09T17:11:51.778Z,11.10
2019-03-09T17:14:20.145Z,10.28
2019-03-09T17:16:48.187Z,10.35
2019-03-09T17:19:16.353Z,8.93
2019-03-09T17:21:44.047Z,8.35
2019-03-09T17:24:12.104Z,9.63
2019-03-09T17:26:40.032Z,8.43
2019-03-09T17:29:07.912Z,9.45
2019-03-09T17:31:35.803Z,11.48
2019-03-09T17:34:04.801Z,18.37
2019-03-09T17:36:32.732Z,20.57
2019-03-09T17:39:00.580Z,16.42
2019-03-09T17:41:28.631Z,16.32
2019-03-09T17:43:56.328Z,13.65
2019-03-09T17:46:24.202Z,12.70
2019-03-09T17:48:52.194Z,11.97
2019-03-09T17:51:20.727Z,12.78
2019-03-09T17:53:49.609Z,11.68
2019-03-09T17:56:17.643Z,15.53
2019-03-09T17:58:45.581Z,13.15
2019-03-09T18:01:13.410Z,13.70
2019-03-09T18:03:41.966Z,13.13
2019-03-09T18:06:09.989Z,13.10
2019-03-09T18:08:37.860Z,18.05
2019-03-09T18:11:06.847Z,11.10
2019-03-09T18:13:35.780Z,13.25
2019-03-09T18:16:03.974Z,11.63
2019-03-09T18:18:31.781Z,11.83
2019-03-09T18:21:00.840Z,14.28
2019-03-09T18:23:28.746Z,15.72
2019-03-09T18:25:58.627Z,12.78
2019-03-09T18:28:32.669Z,15.03
2019-03-09T18:31:00.500Z,14.70
2019-03-09T18:33:28.556Z,13.53
2019-03-09T18:35:56.238Z,13.83
2019-03-09T18:38:24.261Z,14.18
2019-03-09T18:40:52.415Z,13.35
2019-03-09T18:43:20.329Z,13.80
2019-03-09T18:45:48.160Z,17.62
2019-03-09T18:48:16.045Z,23.18
2019-03-09T18:50:45.227Z,15.68
2019-03-09T18:53:13.479Z,18.20
2019-03-09T18:55:41.605Z,20.05
2019-03-09T18:58:09.526Z,17.42
2019-03-09T19:00:37.504Z,17.35
2019-03-09T19:03:06.434Z,18.80
2019-03-09T19:05:34.417Z,15.03
2019-03-09T19:08:02.198Z,20.85
2019-03-09T19:10:29.930Z,14.90
2019-03-09T19:12:57.912Z,15.85
2019-03-09T19:15:25.810Z,17.50
2019-03-09T19:17:53.486Z,14.58
2019-03-09T19:20:22.017Z,19.20
2019-03-09T19:22:49.786Z,15.98
2019-03-09T19:25:17.785Z,21.33
2019-03-09T19:27:45.626Z,18.65
2019-03-09T19:30:19.089Z,21.40
2019-03-09T19:32:47.077Z,22.30
2019-03-09T19:35:17.077Z,33.08
2019-03-09T19:37:45.265Z,26.73
2019-03-09T19:40:14.040Z,25.52
2019-03-09T19:42:42.260Z,24.70
2019-03-09T19:45:13.329Z,21.62
2019-03-09T19:47:41.249Z,22.00
2019-03-09T19:50:11.308Z,18.07
2019-03-09T19:52:39.010Z,19.05
2019-03-09T19:55:08.391Z,17.27
2019-03-09T19:57:36.314Z,14.00
2019-03-09T20:00:04.683Z,15.30
2019-03-09T20:02:32.442Z,11.40
2019-03-09T20:05:01.560Z,13.95
2019-03-09T20:07:29.473Z,12.43
2019-03-09T20:09:57.215Z,10.05
2019-03-09T20:12:25.304Z,9.55
2019-03-09T20:14:53.431Z,11.50
2019-03-09T20:17:25.026Z,8.25
2019-03-09T20:19:52.814Z,8.95
2019-03-09T20:22:21.035Z,17.75
2019-03-09T20:24:49.816Z,19.70
2019-03-09T20:27:17.692Z,24.57
2019-03-09T20:29:45.810Z,25.05
2019-03-09T20:32:16.717Z,19.73
2019-03-09T20:34:44.525Z,21.70
2019-03-09T20:37:12.568Z,19.95
2019-03-09T20:39:40.678Z,17.57
2019-03-09T20:42:08.588Z,14.65
2019-03-09T20:44:36.455Z,28.17
2019-03-09T20:47:04.452Z,9.50
2019-03-09T20:49:32.573Z,13.88
2019-03-09T20:52:00.537Z,13.55
2019-03-09T20:54:29.278Z,15.68
2019-03-09T20:56:58.923Z,18.07
2019-03-09T20:59:30.677Z,15.95
2019-03-09T21:01:58.486Z,24.87
2019-03-09T21:04:27.573Z,21.33
2019-03-09T21:06:55.528Z,19.37
2019-03-09T21:09:24.503Z,22.35
2019-03-09T21:11:52.427Z,19.07
2019-03-09T21:14:20.291Z,21.48
2019-03-09T21:16:48.958Z,22.25
2019-03-09T21:19:16.868Z,25.15
2019-03-09T21:21:48.047Z,24.57
2019-03-09T21:24:16.248Z,27.17
2019-03-09T21:26:44.587Z,24.70
2019-03-09T21:29:12.407Z,26.80
2019-03-09T21:31:40.833Z,28.02
2019-03-09T21:34:09.144Z,30.20
2019-03-09T21:36:37.263Z,22.65
2019-03-09T21:39:05.950Z,20.60
2019-03-09T21:41:37.002Z,20.68
2019-03-09T21:44:05.519Z,23.35
2019-03-09T21:46:33.942Z,23.18
2019-03-09T21:49:01.934Z,18.57
2019-03-09T21:51:31.002Z,16.15
2019-03-09T21:53:58.864Z,17.00
2019-03-09T21:56:26.683Z,16.48
2019-03-09T21:58:55.824Z,20.60
2019-03-09T22:01:23.637Z,16.50
2019-03-09T22:03:51.541Z,16.17
2019-03-09T22:06:19.437Z,15.93
2019-03-09T22:08:48.850Z,17.48
2019-03-09T22:11:16.686Z,17.60
2019-03-09T22:13:44.664Z,18.95
2019-03-09T22:16:12.548Z,18.15
2019-03-09T22:18:40.370Z,17.50
2019-03-09T22:21:08.321Z,12.78
2019-03-09T22:23:44.039Z,13.20
2019-03-09T22:26:07.444Z,18.35
2019-03-09T22:28:35.236Z,18.02
2019-03-09T22:31:03.079Z,17.30
2019-03-09T22:33:30.795Z,18.52
2019-03-09T22:36:00.768Z,13.83
2019-03-09T22:38:29.851Z,15.32
2019-03-09T22:40:59.093Z,15.23
2019-03-09T22:43:26.865Z,15.00
2019-03-09T22:45:55.069Z,17.00
2019-03-09T22:48:23.021Z,16.20
2019-03-09T22:50:50.912Z,13.18
2019-03-09T22:53:18.766Z,14.40
2019-03-09T22:55:46.621Z,11.70
2019-03-09T22:58:14.592Z,13.20
2019-03-09T23:00:42.832Z,14.07
2019-03-09T23:03:12.423Z,16.87
2019-03-09T23:05:41.238Z,10.93
2019-03-09T23:08:12.889Z,10.85
2019-03-09T23:10:40.813Z,13.70
2019-03-09T23:13:08.616Z,10.93
2019-03-09T23:15:36.640Z,12.58
2019-03-09T23:18:04.832Z,16.48
2019-03-09T23:20:33.382Z,14.35
2019-03-09T23:23:01.416Z,12.15
2019-03-09T23:25:29.491Z,12.50
2019-03-09T23:28:00.019Z,13.65
2019-03-09T23:30:28.316Z,11.35
2019-03-09T23:32:56.431Z,17.40
2019-03-09T23:35:24.158Z,12.25
2019-03-09T23:37:52.249Z,14.45
2019-03-09T23:40:21.377Z,11.57
2019-03-09T23:42:49.454Z,14.13
2019-03-09T23:45:18.940Z,13.80
2019-03-09T23:47:46.942Z,16.15
2019-03-09T23:50:15.244Z,14.98
2019-03-09T23:52:43.804Z,16.70
2019-03-09T23:55:21.305Z,11.88
2019-03-09T23:57:41.995Z,12.98
